createdAt,value
2023-04-08T00:00:50.918Z,100.23
2023-04-08T00:03:18.068Z,95.53
2023-04-08T00:05:44.789Z,104.30
2023-04-08T00:08:11.401Z,96.20
2023-04-08T00:10:38.044Z,105.13
2023-04-08T00:13:04.716Z,100.77
2023-04-08T00:15:31.352Z,98.30
2023-04-08T00:17:58.269Z,111.50
2023-04-08T00:20:25.140Z,104.97
2023-04-08T00:22:51.803Z,115.03
2023-04-08T00:25:18.458Z,118.97
2023-04-08T00:27:45.257Z,112.40
2023-04-08T00:30:12.099Z,120.57
2023-04-08T00:32:38.798Z,111.20
2023-04-08T00:35:05.761Z,105.30
2023-04-08T00:37:32.705Z,114.80
2023-04-08T00:42:26.314Z,117.50
2023-04-08T00:44:52.991Z,109.70
2023-04-08T00:47:19.737Z,121.70
2023-04-08T00:49:46.437Z,113.00
2023-04-08T00:52:13.932Z,129.90
2023-04-08T00:54:42.090Z,118.33
2023-04-08T00:57:09.023Z,112.57
2023-04-08T00:59:38.636Z,164.17
2023-04-08T01:02:31.585Z,120.70
2023-04-08T01:05:35.639Z,144.47
2023-04-08T01:08:06.781Z,154.67
2023-04-08T01:10:37.323Z,169.20
2023-04-08T01:13:10.111Z,128.53
2023-04-08T01:15:39.172Z,131.17
2023-04-08T01:18:07.807Z,133.67
2023-04-08T01:20:35.345Z,127.37
2023-04-08T01:23:16.225Z,121.67
2023-04-08T01:25:56.364Z,201.53
2023-04-08T01:28:27.042Z,135.73
2023-04-08T01:30:57.044Z,125.27
2023-04-08T01:33:28.252Z,119.67
2023-04-08T01:35:56.675Z,154.97
2023-04-08T01:38:26.443Z,153.37
2023-04-08T01:40:56.403Z,125.37
2023-04-08T01:43:25.184Z,126.60
2023-04-08T01:45:57.968Z,120.07
2023-04-08T01:48:25.605Z,119.13
2023-04-08T01:50:53.184Z,90.90
2023-04-08T01:53:20.086Z,101.43
2023-04-08T01:55:49.361Z,95.83
2023-04-08T01:58:21.162Z,82.07
2023-04-08T02:00:49.430Z,76.33
2023-04-08T02:03:19.838Z,66.97
2023-04-08T02:05:46.966Z,66.43
2023-04-08T02:08:13.680Z,63.20
2023-04-08T02:10:40.703Z,60.70
2023-04-08T02:13:08.217Z,58.97
2023-04-08T02:15:38.152Z,65.00
2023-04-08T02:18:31.664Z,60.80
2023-04-08T02:21:11.667Z,65.70
2023-04-08T02:23:41.247Z,67.27
2023-04-08T02:26:14.012Z,65.13
2023-04-08T02:28:42.059Z,64.50
2023-04-08T02:31:13.567Z,58.07
2023-04-08T02:33:45.284Z,62.13
2023-04-08T02:36:13.116Z,64.13
2023-04-08T02:38:40.683Z,74.27
2023-04-08T02:41:07.995Z,66.97
2023-04-08T02:43:35.047Z,63.60
2023-04-08T02:46:05.760Z,61.37
2023-04-08T02:48:32.746Z,66.13
2023-04-08T02:50:59.426Z,65.03
2023-04-08T02:53:26.391Z,62.30
2023-04-08T02:55:53.230Z,63.10
2023-04-08T02:58:20.357Z,60.37
2023-04-08T03:00:47.048Z,64.33
2023-04-08T03:03:13.810Z,58.17
2023-04-08T03:05:41.178Z,62.77
2023-04-08T03:08:07.961Z,59.80
2023-04-08T03:10:34.666Z,57.33
2023-04-08T03:13:01.444Z,62.73
2023-04-08T03:15:28.271Z,58.60
2023-04-08T03:17:54.949Z,51.50
2023-04-08T03:20:21.613Z,52.20
2023-04-08T03:22:48.247Z,51.23
2023-04-08T03:25:14.911Z,57.77
2023-04-08T03:27:41.580Z,50.47
2023-04-08T03:30:08.903Z,53.33
2023-04-08T03:32:35.835Z,50.50
2023-04-08T03:35:03.506Z,44.83
2023-04-08T03:37:30.312Z,47.30
2023-04-08T03:39:57.023Z,40.97
2023-04-08T03:42:23.998Z,36.23
2023-04-08T03:44:50.658Z,41.07
2023-04-08T03:47:17.346Z,44.63
2023-04-08T03:49:44.421Z,34.40
2023-04-08T03:52:11.068Z,38.63
2023-04-08T03:54:37.747Z,37.60
2023-04-08T03:57:04.450Z,34.00
2023-04-08T03:59:31.847Z,36.70
2023-04-08T04:01:58.504Z,39.50
2023-04-08T04:04:25.450Z,34.67
2023-04-08T04:06:52.377Z,31.00
2023-04-08T04:09:19.032Z,33.03
2023-04-08T04:11:45.754Z,32.23
2023-04-08T04:14:12.563Z,31.03
2023-04-08T04:16:39.300Z,32.30
2023-04-08T04:19:06.008Z,32.90
2023-04-08T04:21:32.681Z,49.17
2023-04-08T04:23:59.296Z,32.03
2023-04-08T04:26:25.940Z,39.50
2023-04-08T04:28:52.886Z,217.47
2023-04-08T04:31:26.183Z,77.47
2023-04-08T04:33:53.035Z,120.33
2023-04-08T04:36:20.495Z,57.10
2023-04-08T04:38:49.611Z,101.63
2023-04-08T04:41:17.216Z,98.67
2023-04-08T04:43:43.926Z,76.40
2023-04-08T04:46:10.782Z,130.70
2023-04-08T04:48:37.588Z,66.93
2023-04-08T04:51:04.431Z,84.97
2023-04-08T04:53:31.655Z,67.67
2023-04-08T04:55:58.745Z,69.57
2023-04-08T04:58:25.427Z,57.73
2023-04-08T05:00:52.191Z,30.13
2023-04-08T05:03:19.044Z,59.60
2023-04-08T05:05:50.441Z,41.37
2023-04-08T05:08:17.153Z,30.10
2023-04-08T05:10:43.782Z,38.90
2023-04-08T05:13:10.478Z,57.23
2023-04-08T05:15:37.277Z,46.07
2023-04-08T05:18:04.034Z,30.13
2023-04-08T05:20:30.774Z,53.67
2023-04-08T05:22:57.682Z,30.37
2023-04-08T05:25:24.307Z,21.70
2023-04-08T05:27:51.264Z,24.63
2023-04-08T05:30:18.548Z,32.00
2023-04-08T05:32:45.331Z,29.63
2023-04-08T05:35:12.025Z,43.87
2023-04-08T05:37:38.764Z,66.43
2023-04-08T05:40:06.111Z,23.17
2023-04-08T05:42:32.763Z,79.47
2023-04-08T05:44:59.753Z,38.73
2023-04-08T05:47:26.495Z,137.50
2023-04-08T05:49:53.213Z,96.03
2023-04-08T05:52:19.859Z,67.17
2023-04-08T05:54:46.531Z,45.70
2023-04-08T05:57:13.628Z,30.80
2023-04-08T05:59:40.613Z,54.87
2023-04-08T06:02:07.527Z,35.23
2023-04-08T06:04:34.497Z,97.07
2023-04-08T06:07:02.844Z,40.73
2023-04-08T06:09:29.691Z,49.30
2023-04-08T06:11:57.347Z,65.77
2023-04-08T06:14:24.056Z,214.73
2023-04-08T06:16:50.762Z,31.20
2023-04-08T06:19:17.434Z,33.90
2023-04-08T06:21:44.097Z,57.70
2023-04-08T06:24:11.281Z,25.57
2023-04-08T06:26:37.914Z,20.17
2023-04-08T06:29:04.988Z,32.73
2023-04-08T06:31:31.673Z,23.23
2023-04-08T06:33:58.960Z,31.63
2023-04-08T06:36:26.274Z,25.63
2023-04-08T06:38:52.924Z,19.03
2023-04-08T06:41:19.560Z,21.20
2023-04-08T06:43:46.225Z,21.70
2023-04-08T06:46:12.899Z,26.00
2023-04-08T06:48:40.169Z,23.67
2023-04-08T06:51:07.772Z,24.00
2023-04-08T06:53:34.476Z,21.97
2023-04-08T06:56:01.224Z,24.30
2023-04-08T06:58:27.952Z,18.73
2023-04-08T07:00:56.129Z,19.47
2023-04-08T07:03:24.090Z,23.13
2023-04-08T07:05:50.894Z,21.43
2023-04-08T07:08:17.540Z,22.30
2023-04-08T07:10:44.804Z,23.93
2023-04-08T07:13:11.626Z,26.03
2023-04-08T07:15:38.340Z,28.40
2023-04-08T07:18:05.997Z,39.60
2023-04-08T07:20:35.706Z,43.50
2023-04-08T07:23:03.082Z,47.03
2023-04-08T07:25:30.552Z,51.50
2023-04-08T07:27:57.249Z,50.77
2023-04-08T07:30:23.863Z,43.00
2023-04-08T07:32:50.814Z,41.10
2023-04-08T07:35:24.090Z,39.80
2023-04-08T07:37:51.558Z,41.20
2023-04-08T07:40:18.334Z,41.40
2023-04-08T07:42:45.060Z,47.73
2023-04-08T07:45:11.968Z,43.13
2023-04-08T07:47:38.784Z,46.67
2023-04-08T07:50:06.043Z,51.80
2023-04-08T07:52:32.913Z,44.43
2023-04-08T07:54:59.773Z,48.50
2023-04-08T07:57:26.804Z,52.07
2023-04-08T07:59:54.155Z,53.20
2023-04-08T08:02:21.098Z,55.67
2023-04-08T08:04:47.870Z,49.57
2023-04-08T08:07:14.554Z,48.57
2023-04-08T08:09:41.174Z,48.80
2023-04-08T08:12:08.338Z,49.70
2023-04-08T08:14:35.030Z,52.30
2023-04-08T08:17:03.241Z,51.30
2023-04-08T08:19:29.926Z,53.13
2023-04-08T08:21:56.879Z,55.60
2023-04-08T08:24:23.532Z,47.77
2023-04-08T08:26:50.528Z,52.83
2023-04-08T08:29:17.194Z,52.17
2023-04-08T08:31:43.919Z,51.37
2023-04-08T08:34:10.668Z,44.93
2023-04-08T08:36:37.322Z,47.53
2023-04-08T08:39:04.145Z,54.20
2023-04-08T08:41:35.841Z,49.40
2023-04-08T08:44:05.096Z,52.67
2023-04-08T08:46:31.903Z,40.37
2023-04-08T08:48:58.738Z,45.23
2023-04-08T08:51:27.825Z,54.00
2023-04-08T08:53:54.730Z,50.97
2023-04-08T08:56:21.932Z,50.60
2023-04-08T08:58:49.154Z,50.20
2023-04-08T09:01:32.805Z,52.40
2023-04-08T09:04:20.666Z,57.43
2023-04-08T09:07:08.152Z,61.93
2023-04-08T09:09:51.145Z,55.67
2023-04-08T09:12:18.286Z,56.30
2023-04-08T09:14:45.252Z,51.30
2023-04-08T09:17:12.021Z,50.00
2023-04-08T09:19:38.793Z,50.43
2023-04-08T09:22:11.295Z,54.43
2023-04-08T09:24:38.292Z,51.13
2023-04-08T09:27:06.063Z,53.70
2023-04-08T09:29:35.768Z,48.77
2023-04-08T09:32:04.095Z,50.30
2023-04-08T09:34:33.852Z,51.60
2023-04-08T09:37:00.744Z,45.77
2023-04-08T09:39:27.384Z,58.10
2023-04-08T09:41:58.248Z,56.70
2023-04-08T09:44:28.468Z,52.17
2023-04-08T09:47:28.672Z,46.53
2023-04-08T09:50:04.012Z,49.27
2023-04-08T09:52:34.196Z,43.97
2023-04-08T09:55:09.566Z,49.33
2023-04-08T09:58:10.620Z,48.60
2023-04-08T10:00:50.234Z,46.27
2023-04-08T10:03:46.006Z,44.53
2023-04-08T10:06:12.781Z,48.47
2023-04-08T10:08:39.676Z,45.00
2023-04-08T10:11:06.437Z,41.93
2023-04-08T10:13:34.057Z,42.53
2023-04-08T10:16:24.431Z,38.37
2023-04-08T10:18:55.593Z,35.27
2023-04-08T10:21:37.538Z,41.60
2023-04-08T10:24:11.590Z,38.13
2023-04-08T10:26:40.418Z,37.60
2023-04-08T10:29:19.185Z,37.20
2023-04-08T10:31:50.687Z,26.23
2023-04-08T10:34:22.639Z,23.23
2023-04-08T10:36:49.797Z,26.73
2023-04-08T10:39:16.976Z,26.30
2023-04-08T10:41:45.740Z,27.87
2023-04-08T10:44:22.939Z,30.90
2023-04-08T10:46:51.301Z,26.93
2023-04-08T10:49:18.935Z,25.63
2023-04-08T10:51:46.957Z,25.40
2023-04-08T10:54:18.457Z,22.77
2023-04-08T10:56:49.904Z,19.13
2023-04-08T10:59:27.516Z,21.43
2023-04-08T11:01:55.329Z,24.40
2023-04-08T11:04:23.581Z,24.60
2023-04-08T11:06:51.404Z,24.37
2023-04-08T11:09:18.244Z,20.50
2023-04-08T11:11:46.557Z,19.73
2023-04-08T11:14:13.908Z,20.67
2023-04-08T11:16:40.898Z,20.80
2023-04-08T11:19:08.797Z,18.87
2023-04-08T11:21:37.354Z,19.43
2023-04-08T11:24:09.944Z,22.10
2023-04-08T11:26:37.609Z,17.60
2023-04-08T11:29:06.286Z,17.00
2023-04-08T11:31:33.758Z,20.23
2023-04-08T11:34:00.465Z,19.30
2023-04-08T11:36:30.065Z,19.77
2023-04-08T11:38:56.899Z,19.80
2023-04-08T11:41:24.069Z,19.67
2023-04-08T11:43:55.910Z,24.83
2023-04-08T11:46:23.657Z,21.03
2023-04-08T11:49:07.889Z,20.80
2023-04-08T11:51:52.406Z,18.20
2023-04-08T11:54:32.984Z,17.07
2023-04-08T11:56:59.956Z,16.83
2023-04-08T11:59:29.031Z,12.87
2023-04-08T12:01:56.471Z,14.27
2023-04-08T12:04:23.329Z,14.57
2023-04-08T12:06:50.210Z,14.13
2023-04-08T12:09:17.517Z,16.13
2023-04-08T12:11:44.526Z,12.20
2023-04-08T12:14:11.238Z,15.33
2023-04-08T12:16:37.996Z,18.30
2023-04-08T12:19:04.737Z,13.60
2023-04-08T12:21:33.862Z,16.40
2023-04-08T12:24:00.792Z,18.60
2023-04-08T12:26:27.744Z,14.93
2023-04-08T12:28:54.412Z,20.60
2023-04-08T12:31:22.558Z,12.67
2023-04-08T12:33:49.814Z,13.80
2023-04-08T12:36:17.166Z,14.33
2023-04-08T12:38:43.869Z,12.43
2023-04-08T12:41:10.540Z,13.63
2023-04-08T12:43:37.606Z,17.37
2023-04-08T12:46:04.246Z,15.00
2023-04-08T12:48:31.117Z,19.00
2023-04-08T12:50:58.684Z,14.17
2023-04-08T12:53:25.343Z,13.47
2023-04-08T12:55:52.239Z,13.17
2023-04-08T12:58:20.822Z,15.73
2023-04-08T13:00:49.597Z,13.80
2023-04-08T13:03:17.836Z,12.90
2023-04-08T13:05:44.749Z,13.40
2023-04-08T13:08:14.532Z,15.30
2023-04-08T13:10:42.408Z,16.00
2023-04-08T13:13:09.063Z,13.03
2023-04-08T13:15:35.778Z,12.33
2023-04-08T13:18:02.474Z,15.43
2023-04-08T13:20:29.152Z,11.93
2023-04-08T13:22:55.871Z,11.90
2023-04-08T13:25:22.627Z,11.23
2023-04-08T13:27:49.272Z,14.10
2023-04-08T13:30:16.381Z,9.83
2023-04-08T13:32:43.200Z,11.03
2023-04-08T13:35:10.353Z,14.13
2023-04-08T13:37:37.360Z,12.13
2023-04-08T13:40:05.057Z,11.40
2023-04-08T13:42:32.808Z,10.13
2023-04-08T13:44:59.860Z,13.07
2023-04-08T13:47:27.100Z,12.53
2023-04-08T13:49:54.315Z,11.63
2023-04-08T13:52:21.219Z,9.87
2023-04-08T13:54:47.863Z,11.40
2023-04-08T13:57:15.253Z,9.47
2023-04-08T13:59:43.306Z,11.10
2023-04-08T14:02:11.296Z,8.50
2023-04-08T14:04:38.031Z,8.23
2023-04-08T14:07:05.263Z,11.57
2023-04-08T14:09:32.086Z,10.47
2023-04-08T14:11:59.387Z,10.27
2023-04-08T14:14:26.719Z,9.77
2023-04-08T14:16:53.573Z,10.50
2023-04-08T14:19:20.266Z,14.10
2023-04-08T14:21:47.015Z,13.00
2023-04-08T14:24:13.640Z,10.63
2023-04-08T14:26:40.742Z,10.93
2023-04-08T14:29:07.676Z,10.80
2023-04-08T14:31:34.912Z,13.13
2023-04-08T14:34:01.992Z,13.43
2023-04-08T14:36:29.110Z,13.53
2023-04-08T14:38:56.191Z,15.13
2023-04-08T14:41:23.215Z,12.50
2023-04-08T14:43:49.860Z,12.60
2023-04-08T14:46:17.199Z,15.93
2023-04-08T14:48:43.972Z,12.83
2023-04-08T14:51:10.732Z,15.10
2023-04-08T14:53:37.416Z,16.33
2023-04-08T14:56:05.068Z,14.70
2023-04-08T14:58:32.911Z,13.60
2023-04-08T15:00:59.517Z,13.47
2023-04-08T15:03:27.025Z,16.43
2023-04-08T15:05:58.338Z,17.10
2023-04-08T15:08:25.008Z,16.40
2023-04-08T15:10:51.692Z,19.30
2023-04-08T15:13:18.924Z,17.20
2023-04-08T15:15:45.792Z,17.63
2023-04-08T15:18:12.515Z,19.23
2023-04-08T15:20:39.176Z,24.70
2023-04-08T15:23:06.003Z,18.83
2023-04-08T15:25:32.933Z,18.23
2023-04-08T15:27:59.609Z,15.63
2023-04-08T15:30:26.337Z,18.77
2023-04-08T15:32:52.986Z,18.77
2023-04-08T15:35:19.678Z,15.83
2023-04-08T15:37:46.342Z,16.57
2023-04-08T15:40:13.231Z,18.97
2023-04-08T15:42:39.890Z,19.90
2023-04-08T15:45:06.915Z,17.70
2023-04-08T15:47:35.151Z,20.50
2023-04-08T15:50:01.849Z,18.43
2023-04-08T15:52:28.484Z,18.43
2023-04-08T15:54:55.100Z,18.27
2023-04-08T15:57:26.335Z,15.73
2023-04-08T15:59:56.146Z,19.80
2023-04-08T16:02:22.925Z,18.70
2023-04-08T16:04:49.864Z,18.33
2023-04-08T16:07:16.599Z,19.90
2023-04-08T16:09:43.672Z,20.27
2023-04-08T16:12:10.718Z,27.50
2023-04-08T16:14:37.384Z,23.50
2023-04-08T16:17:04.652Z,24.10
2023-04-08T16:19:32.265Z,22.57
2023-04-08T16:21:58.923Z,23.40
2023-04-08T16:24:25.703Z,23.20
2023-04-08T16:26:52.958Z,22.10
2023-04-08T16:29:19.570Z,24.87
2023-04-08T16:31:47.034Z,23.87
2023-04-08T16:34:13.701Z,19.97
2023-04-08T16:36:40.836Z,23.60
2023-04-08T16:39:07.460Z,26.20
2023-04-08T16:41:34.778Z,22.60
2023-04-08T16:44:01.398Z,24.77
2023-04-08T16:46:28.070Z,22.30
2023-04-08T16:48:54.684Z,23.90
2023-04-08T16:51:21.470Z,21.37
2023-04-08T16:53:48.106Z,25.03
2023-04-08T16:56:18.584Z,22.30
2023-04-08T16:58:45.364Z,28.30
2023-04-08T17:01:16.060Z,25.90
2023-04-08T17:03:42.906Z,22.77
2023-04-08T17:06:14.470Z,25.40
2023-04-08T17:08:43.464Z,27.90
2023-04-08T17:11:13.314Z,25.23
2023-04-08T17:13:42.012Z,25.80
2023-04-08T17:16:16.863Z,23.17
2023-04-08T17:18:44.621Z,24.80
2023-04-08T17:21:13.954Z,24.37
2023-04-08T17:23:40.900Z,25.13
2023-04-08T17:26:09.183Z,28.50
2023-04-08T17:28:36.505Z,25.77
2023-04-08T17:31:03.232Z,28.33
2023-04-08T17:33:30.219Z,26.73
2023-04-08T17:35:57.440Z,24.87
2023-04-08T17:38:24.204Z,26.40
2023-04-08T17:40:50.832Z,21.67
2023-04-08T17:43:17.892Z,24.10
2023-04-08T17:45:44.742Z,31.57
2023-04-08T17:48:11.580Z,24.43
2023-04-08T17:50:38.284Z,25.20
2023-04-08T17:53:04.911Z,25.60
2023-04-08T17:55:31.617Z,24.90
2023-04-08T17:57:58.943Z,23.67
2023-04-08T18:00:27.381Z,29.50
2023-04-08T18:02:54.068Z,27.00
2023-04-08T18:05:21.619Z,29.43
2023-04-08T18:07:48.681Z,28.70
2023-04-08T18:10:15.339Z,26.20
2023-04-08T18:12:42.316Z,27.67
2023-04-08T18:15:09.269Z,26.37
2023-04-08T18:17:35.952Z,24.63
2023-04-08T18:20:02.606Z,30.57
2023-04-08T18:22:29.493Z,26.03
2023-04-08T18:24:56.727Z,24.90
2023-04-08T18:27:23.352Z,26.13
2023-04-08T18:29:53.207Z,28.40
2023-04-08T18:32:19.904Z,29.37
2023-04-08T18:34:46.949Z,31.67
2023-04-08T18:37:16.724Z,28.40
2023-04-08T18:39:43.431Z,25.73
2023-04-08T18:42:10.176Z,26.77
2023-04-08T18:44:37.631Z,26.13
2023-04-08T18:47:05.131Z,30.97
2023-04-08T18:49:33.941Z,31.17
2023-04-08T18:52:03.008Z,29.90
2023-04-08T18:54:30.006Z,30.73
2023-04-08T18:56:56.820Z,36.30
2023-04-08T18:59:24.264Z,29.17
2023-04-08T19:01:50.995Z,33.37
2023-04-08T19:04:18.135Z,32.77
2023-04-08T19:06:45.036Z,33.40
2023-04-08T19:09:11.649Z,35.13
2023-04-08T19:11:38.360Z,32.00
2023-04-08T19:14:05.356Z,37.87
2023-04-08T19:16:32.282Z,36.13
2023-04-08T19:18:58.953Z,35.53
2023-04-08T19:21:27.138Z,39.50
2023-04-08T19:23:54.017Z,40.40
2023-04-08T19:26:20.802Z,69.80
2023-04-08T19:28:47.512Z,42.93
2023-04-08T19:31:16.320Z,40.30
2023-04-08T19:33:43.241Z,45.67
2023-04-08T19:36:10.014Z,61.30
2023-04-08T19:38:36.953Z,56.07
2023-04-08T19:41:03.774Z,76.87
2023-04-08T19:43:30.552Z,64.13
2023-04-08T19:45:57.715Z,59.57
2023-04-08T19:48:25.620Z,56.33
2023-04-08T19:50:52.423Z,61.63
2023-04-08T19:53:19.044Z,64.80
2023-04-08T19:55:45.781Z,65.13
2023-04-08T19:58:12.472Z,56.10
2023-04-08T20:00:39.977Z,42.73
2023-04-08T20:03:07.852Z,47.90
2023-04-08T20:05:34.792Z,47.30
2023-04-08T20:08:01.399Z,43.00
2023-04-08T20:10:28.081Z,46.50
2023-04-08T20:12:54.796Z,43.47
2023-04-08T20:15:25.098Z,41.90
2023-04-08T20:17:53.111Z,43.73
2023-04-08T20:20:20.379Z,42.67
2023-04-08T20:22:47.070Z,47.37
2023-04-08T20:25:13.857Z,44.37
2023-04-08T20:27:41.161Z,45.33
2023-04-08T20:30:08.332Z,44.73
2023-04-08T20:32:34.995Z,44.63
2023-04-08T20:35:01.982Z,45.00
2023-04-08T20:37:28.672Z,39.00
2023-04-08T20:39:55.301Z,40.83
2023-04-08T20:42:22.497Z,41.73
2023-04-08T20:44:49.102Z,40.67
2023-04-08T20:47:16.696Z,42.00
2023-04-08T20:49:43.328Z,39.07
2023-04-08T20:52:09.994Z,37.03
2023-04-08T20:54:36.595Z,42.80
2023-04-08T20:57:03.848Z,45.10
2023-04-08T20:59:30.469Z,37.93
2023-04-08T21:01:57.130Z,39.73
2023-04-08T21:04:24.402Z,38.07
2023-04-08T21:06:51.549Z,37.13
2023-04-08T21:09:18.159Z,41.37
2023-04-08T21:11:44.862Z,47.43
2023-04-08T21:14:11.474Z,45.67
2023-04-08T21:16:38.128Z,49.00
2023-04-08T21:19:04.858Z,48.90
2023-04-08T21:21:32.049Z,47.27
2023-04-08T21:24:00.431Z,50.70
2023-04-08T21:26:27.603Z,46.20
2023-04-08T21:28:54.285Z,49.67
2023-04-08T21:31:21.003Z,51.73
2023-04-08T21:33:47.647Z,49.43
2023-04-08T21:36:14.296Z,50.67
2023-04-08T21:38:41.819Z,53.47
2023-04-08T21:41:08.603Z,56.10
2023-04-08T21:43:35.299Z,52.90
2023-04-08T21:46:01.950Z,53.87
2023-04-08T21:48:28.764Z,55.87
2023-04-08T21:50:55.453Z,51.00
2023-04-08T21:53:23.649Z,53.20
2023-04-08T21:55:50.259Z,54.20
2023-04-08T21:58:17.117Z,60.80
2023-04-08T22:00:44.594Z,52.60
2023-04-08T22:03:12.080Z,60.53
2023-04-08T22:05:38.996Z,55.63
2023-04-08T22:08:05.742Z,56.97
2023-04-08T22:10:32.346Z,59.70
2023-04-08T22:12:58.973Z,59.00
2023-04-08T22:15:25.627Z,66.10
2023-04-08T22:17:52.986Z,61.10
2023-04-08T22:20:19.691Z,60.90
2023-04-08T22:22:46.335Z,57.80
2023-04-08T22:25:13.002Z,64.93
2023-04-08T22:27:39.641Z,69.17
2023-04-08T22:30:06.987Z,61.60
2023-04-08T22:32:33.619Z,62.97
2023-04-08T22:35:00.411Z,66.73
2023-04-08T22:37:27.077Z,65.00
2023-04-08T22:39:53.725Z,58.67
2023-04-08T22:42:20.706Z,64.40
2023-04-08T22:44:47.357Z,71.60
2023-04-08T22:47:14.042Z,66.90
2023-04-08T22:49:42.568Z,64.83
2023-04-08T22:52:09.556Z,66.67
2023-04-08T22:54:36.665Z,63.50
2023-04-08T22:57:03.457Z,65.60
2023-04-08T22:59:30.259Z,63.57
2023-04-08T23:01:56.891Z,61.67
2023-04-08T23:04:23.827Z,59.83
2023-04-08T23:06:50.859Z,65.80
2023-04-08T23:09:17.463Z,55.50
2023-04-08T23:11:44.076Z,59.70
2023-04-08T23:14:11.353Z,58.87
2023-04-08T23:16:37.961Z,68.20
2023-04-08T23:19:04.631Z,55.57
2023-04-08T23:21:31.338Z,63.37
2023-04-08T23:23:57.975Z,61.33
2023-04-08T23:26:25.311Z,66.13
2023-04-08T23:28:52.142Z,59.50
2023-04-08T23:31:19.177Z,56.90
2023-04-08T23:33:45.910Z,60.90
2023-04-08T23:36:13.151Z,60.67
2023-04-08T23:38:39.922Z,56.13
2023-04-08T23:41:07.713Z,59.80
2023-04-08T23:43:34.846Z,56.80
2023-04-08T23:46:01.667Z,59.50
2023-04-08T23:48:28.877Z,57.10
2023-04-08T23:50:55.948Z,56.77
2023-04-08T23:53:22.831Z,53.50
2023-04-08T23:55:49.572Z,56.33
2023-04-08T23:58:16.168Z,55.87
